Terminal Aerodrome Forecast
Issued by NWS

Home | Current Version | Previous Version | Text Only | Print | Product List | Glossary On
Versions: 1 2 3 4 5 6 7 8 9 10 11 12 13 14 15 16
000
FTUS45 KVEF 220536
TAFHND
TAF
KHND 220536Z 2206/2306 17007KT P6SM FEW100 SCT150
     FM221900 19011KT P6SM VCSH SCT080 BKN150 PROB30 2220/2302
      VRB15G25KT -TSRA BKN070CB
     FM230300 21009KT P6SM SCT080 BKN150=

USA.gov is the U.S. government's official web portal to all federal, state and local government web resources and services.